Red Bridge, Pennsylvania
Current Conditions -  °F | °C
As of 2:53 PM on Thursday 27 Nov 2014 (Local Time) from KHGR Reporting Station
Broken Clouds Broken Clouds  
Wind Chill: 33°   Ceiling: 6000
Heat Index: 38°   Visibility: 10mi
Dew Point: 28°   Wind: 7mph
Humidity: 68%   Direction: 300°WNW
Pressure: 30.04"   Gusts: NA
Location:  39.9438°N, 77.6827°W
Report Text: KHGR 271953Z 30006KT 10SM BKN060 03/M02 A3004 RMK AO2 SLP188 T00331022 $
Loading
Personal Weather Stations






























Interactive Weather Map New forecast layout! Learn more

10-Day Weather Forecast

Advertisements
Track Severe Weather on mobile